sensor_id;sensor_type;location;lat;lon;timestamp;temperature;humidity
3638;DHT22;1835;50.068;8.154;2022-08-14T00:02:20;21.20;94.70
3638;DHT22;1835;50.068;8.154;2022-08-14T00:04:53;21.20;94.90
3638;DHT22;1835;50.068;8.154;2022-08-14T00:07:22;21.20;95.30
3638;DHT22;1835;50.068;8.154;2022-08-14T00:09:52;21.20;95.40
3638;DHT22;1835;50.068;8.154;2022-08-14T00:12:43;21.20;95.10
3638;DHT22;1835;50.068;8.154;2022-08-14T00:15:25;21.10;95.40
3638;DHT22;1835;50.068;8.154;2022-08-14T00:18:04;21.20;95.70
3638;DHT22;1835;50.068;8.154;2022-08-14T00:20:35;21.20;95.70
3638;DHT22;1835;50.068;8.154;2022-08-14T00:23:12;21.20;96.00
3638;DHT22;1835;50.068;8.154;2022-08-14T00:25:45;21.20;96.10
3638;DHT22;1835;50.068;8.154;2022-08-14T00:28:32;21.20;95.80
3638;DHT22;1835;50.068;8.154;2022-08-14T00:31:03;21.10;96.20
3638;DHT22;1835;50.068;8.154;2022-08-14T00:33:35;21.10;96.50
3638;DHT22;1835;50.068;8.154;2022-08-14T00:36:18;21.00;96.70
3638;DHT22;1835;50.068;8.154;2022-08-14T00:39:11;21.00;96.80
3638;DHT22;1835;50.068;8.154;2022-08-14T00:41:44;20.90;97.10
3638;DHT22;1835;50.068;8.154;2022-08-14T00:44:13;20.90;97.40
3638;DHT22;1835;50.068;8.154;2022-08-14T00:46:58;20.90;97.50
3638;DHT22;1835;50.068;8.154;2022-08-14T00:49:28;20.90;97.70
3638;DHT22;1835;50.068;8.154;2022-08-14T00:52:08;20.80;97.70
3638;DHT22;1835;50.068;8.154;2022-08-14T00:54:42;20.60;98.20
3638;DHT22;1835;50.068;8.154;2022-08-14T00:57:11;20.60;98.50
3638;DHT22;1835;50.068;8.154;2022-08-14T00:59:39;20.70;98.70
3638;DHT22;1835;50.068;8.154;2022-08-14T01:02:08;20.70;98.90
3638;DHT22;1835;50.068;8.154;2022-08-14T01:04:37;20.60;99.00
3638;DHT22;1835;50.068;8.154;2022-08-14T01:07:21;20.70;99.10
3638;DHT22;1835;50.068;8.154;2022-08-14T01:09:55;20.60;99.20
3638;DHT22;1835;50.068;8.154;2022-08-14T01:12:28;20.60;99.60
3638;DHT22;1835;50.068;8.154;2022-08-14T01:14:57;20.60;99.50
3638;DHT22;1835;50.068;8.154;2022-08-14T01:17:29;20.50;99.70
3638;DHT22;1835;50.068;8.154;2022-08-14T01:20:16;20.50;99.90
3638;DHT22;1835;50.068;8.154;2022-08-14T01:23:08;20.50;99.90
3638;DHT22;1835;50.068;8.154;2022-08-14T01:25:46;20.50;99.90
3638;DHT22;1835;50.068;8.154;2022-08-14T01:28:17;20.50;99.90
3638;DHT22;1835;50.068;8.154;2022-08-14T01:31:09;20.50;99.90
3638;DHT22;1835;50.068;8.154;2022-08-14T01:33:41;20.60;99.90
3638;DHT22;1835;50.068;8.154;2022-08-14T01:36:34;20.60;99.90
3638;DHT22;1835;50.068;8.154;2022-08-14T01:39:09;20.60;99.90
3638;DHT22;1835;50.068;8.154;2022-08-14T01:41:41;20.60;99.90
3638;DHT22;1835;50.068;8.154;2022-08-14T01:44:13;20.50;99.90
3638;DHT22;1835;50.068;8.154;2022-08-14T01:47:00;20.40;99.90
3638;DHT22;1835;50.068;8.154;2022-08-14T01:49:48;20.40;99.90
3638;DHT22;1835;50.068;8.154;2022-08-14T01:52:30;20.50;99.90
3638;DHT22;1835;50.068;8.154;2022-08-14T01:55:24;20.50;99.90
3638;DHT22;1835;50.068;8.154;2022-08-14T01:57:58;20.50;99.90
3638;DHT22;1835;50.068;8.154;2022-08-14T02:00:48;20.50;99.90
3638;DHT22;1835;50.068;8.154;2022-08-14T02:03:21;20.50;99.90
3638;DHT22;1835;50.068;8.154;2022-08-14T02:05:56;20.40;99.90
3638;DHT22;1835;50.068;8.154;2022-08-14T02:08:45;20.40;99.90
3638;DHT22;1835;50.068;8.154;2022-08-14T02:11:23;20.40;99.90
3638;DHT22;1835;50.068;8.154;2022-08-14T02:13:56;20.40;99.90
3638;DHT22;1835;50.068;8.154;2022-08-14T02:16:35;20.40;99.90
3638;DHT22;1835;50.068;8.154;2022-08-14T02:19:08;20.30;99.90
3638;DHT22;1835;50.068;8.154;2022-08-14T02:21:40;20.30;99.90
3638;DHT22;1835;50.068;8.154;2022-08-14T02:24:15;20.30;99.90
3638;DHT22;1835;50.068;8.154;2022-08-14T02:27:08;20.30;99.90
3638;DHT22;1835;50.068;8.154;2022-08-14T02:29:58;20.20;99.90
3638;DHT22;1835;50.068;8.154;2022-08-14T02:32:28;20.20;99.90
3638;DHT22;1835;50.068;8.154;2022-08-14T02:35:04;20.10;99.90
3638;DHT22;1835;50.068;8.154;2022-08-14T02:37:44;20.20;99.90
3638;DHT22;1835;50.068;8.154;2022-08-14T02:40:15;20.00;99.90
3638;DHT22;1835;50.068;8.154;2022-08-14T02:42:46;19.90;99.90
3638;DHT22;1835;50.068;8.154;2022-08-14T02:45:23;20.00;99.90
3638;DHT22;1835;50.068;8.154;2022-08-14T02:48:04;20.00;99.90
3638;DHT22;1835;50.068;8.154;2022-08-14T02:50:54;20.00;99.90
3638;DHT22;1835;50.068;8.154;2022-08-14T02:53:26;20.00;99.90
3638;DHT22;1835;50.068;8.154;2022-08-14T02:55:55;19.90;99.90
3638;DHT22;1835;50.068;8.154;2022-08-14T02:58:30;20.00;99.90
3638;DHT22;1835;50.068;8.154;2022-08-14T03:01:03;20.00;99.90
3638;DHT22;1835;50.068;8.154;2022-08-14T03:03:33;20.00;99.90
3638;DHT22;1835;50.068;8.154;2022-08-14T03:06:06;20.00;99.90
3638;DHT22;1835;50.068;8.154;2022-08-14T03:08:36;19.90;99.90
3638;DHT22;1835;50.068;8.154;2022-08-14T03:11:12;19.90;99.90
3638;DHT22;1835;50.068;8.154;2022-08-14T03:13:44;19.90;99.90
3638;DHT22;1835;50.068;8.154;2022-08-14T03:16:16;19.90;99.90
3638;DHT22;1835;50.068;8.154;2022-08-14T03:18:54;19.90;99.90
3638;DHT22;1835;50.068;8.154;2022-08-14T03:21:25;19.90;99.90
3638;DHT22;1835;50.068;8.154;2022-08-14T03:23:57;19.90;99.90
3638;DHT22;1835;50.068;8.154;2022-08-14T03:26:47;19.80;99.90
3638;DHT22;1835;50.068;8.154;2022-08-14T03:29:25;19.80;99.90
3638;DHT22;1835;50.068;8.154;2022-08-14T03:31:55;19.80;99.90
3638;DHT22;1835;50.068;8.154;2022-08-14T03:34:25;19.80;99.90
3638;DHT22;1835;50.068;8.154;2022-08-14T03:37:13;19.80;99.90
3638;DHT22;1835;50.068;8.154;2022-08-14T03:40:03;19.80;99.90
3638;DHT22;1835;50.068;8.154;2022-08-14T03:42:37;19.80;99.90
3638;DHT22;1835;50.068;8.154;2022-08-14T03:45:08;19.80;99.90
3638;DHT22;1835;50.068;8.154;2022-08-14T03:47:57;19.70;99.90
3638;DHT22;1835;50.068;8.154;2022-08-14T03:50:28;19.80;99.90
3638;DHT22;1835;50.068;8.154;2022-08-14T03:52:59;19.80;99.90
3638;DHT22;1835;50.068;8.154;2022-08-14T03:55:28;19.70;99.90
3638;DHT22;1835;50.068;8.154;2022-08-14T03:57:56;19.70;99.90
3638;DHT22;1835;50.068;8.154;2022-08-14T04:00:28;19.60;99.90
3638;DHT22;1835;50.068;8.154;2022-08-14T04:03:12;19.60;99.90
3638;DHT22;1835;50.068;8.154;2022-08-14T04:05:50;19.50;99.90
3638;DHT22;1835;50.068;8.154;2022-08-14T04:08:19;19.50;99.90
3638;DHT22;1835;50.068;8.154;2022-08-14T04:10:58;19.50;99.90
3638;DHT22;1835;50.068;8.154;2022-08-14T04:13:37;19.50;99.90
3638;DHT22;1835;50.068;8.154;2022-08-14T04:16:10;19.40;99.90
3638;DHT22;1835;50.068;8.154;2022-08-14T04:18:41;19.40;99.90
3638;DHT22;1835;50.068;8.154;2022-08-14T04:21:12;19.30;99.90
3638;DHT22;1835;50.068;8.154;2022-08-14T04:23:43;19.50;99.90
3638;DHT22;1835;50.068;8.154;2022-08-14T04:26:25;19.40;99.90
3638;DHT22;1835;50.068;8.154;2022-08-14T04:29:09;19.50;99.90
3638;DHT22;1835;50.068;8.154;2022-08-14T04:31:43;19.40;99.90
3638;DHT22;1835;50.068;8.154;2022-08-14T04:34:32;19.40;99.90
3638;DHT22;1835;50.068;8.154;2022-08-14T04:37:03;19.50;99.90
3638;DHT22;1835;50.068;8.154;2022-08-14T04:39:53;19.40;99.90
3638;DHT22;1835;50.068;8.154;2022-08-14T04:42:41;19.40;99.90
3638;DHT22;1835;50.068;8.154;2022-08-14T04:45:27;19.30;99.90
3638;DHT22;1835;50.068;8.154;2022-08-14T04:48:10;19.40;99.90
3638;DHT22;1835;50.068;8.154;2022-08-14T04:51:03;19.30;99.90
3638;DHT22;1835;50.068;8.154;2022-08-14T04:53:34;19.40;99.90
3638;DHT22;1835;50.068;8.154;2022-08-14T04:56:11;19.40;99.90
3638;DHT22;1835;50.068;8.154;2022-08-14T04:59:03;19.40;99.90
3638;DHT22;1835;50.068;8.154;2022-08-14T05:01:38;19.50;99.90
3638;DHT22;1835;50.068;8.154;2022-08-14T05:04:19;19.50;99.90
3638;DHT22;1835;50.068;8.154;2022-08-14T05:06:49;19.50;99.90
3638;DHT22;1835;50.068;8.154;2022-08-14T05:09:22;19.60;99.90
3638;DHT22;1835;50.068;8.154;2022-08-14T05:11:56;19.50;99.90
3638;DHT22;1835;50.068;8.154;2022-08-14T05:14:45;19.60;99.90
3638;DHT22;1835;50.068;8.154;2022-08-14T05:17:19;19.60;99.90
3638;DHT22;1835;50.068;8.154;2022-08-14T05:20:11;19.70;99.90
3638;DHT22;1835;50.068;8.154;2022-08-14T05:23:00;19.80;99.90
3638;DHT22;1835;50.068;8.154;2022-08-14T05:25:29;19.70;99.90
3638;DHT22;1835;50.068;8.154;2022-08-14T05:28:08;19.80;99.90
3638;DHT22;1835;50.068;8.154;2022-08-14T05:30:42;19.70;99.90
3638;DHT22;1835;50.068;8.154;2022-08-14T05:33:12;19.80;99.90
3638;DHT22;1835;50.068;8.154;2022-08-14T05:35:42;19.70;99.90
3638;DHT22;1835;50.068;8.154;2022-08-14T05:38:14;19.70;99.90
3638;DHT22;1835;50.068;8.154;2022-08-14T05:40:57;19.70;99.90
3638;DHT22;1835;50.068;8.154;2022-08-14T05:43:26;19.80;99.90
3638;DHT22;1835;50.068;8.154;2022-08-14T05:46:09;19.90;99.90
3638;DHT22;1835;50.068;8.154;2022-08-14T05:48:41;20.00;99.90
3638;DHT22;1835;50.068;8.154;2022-08-14T05:51:12;20.10;99.90
3638;DHT22;1835;50.068;8.154;2022-08-14T05:53:41;20.10;99.90
3638;DHT22;1835;50.068;8.154;2022-08-14T05:56:30;20.50;99.90
3638;DHT22;1835;50.068;8.154;2022-08-14T05:58:58;20.80;99.90
3638;DHT22;1835;50.068;8.154;2022-08-14T06:01:26;21.20;99.90
3638;DHT22;1835;50.068;8.154;2022-08-14T06:03:57;21.90;99.90
3638;DHT22;1835;50.068;8.154;2022-08-14T06:06:27;22.80;99.90
3638;DHT22;1835;50.068;8.154;2022-08-14T06:09:03;23.50;99.90
3638;DHT22;1835;50.068;8.154;2022-08-14T06:11:35;24.10;99.90
3638;DHT22;1835;50.068;8.154;2022-08-14T06:14:04;24.60;99.90
3638;DHT22;1835;50.068;8.154;2022-08-14T06:16:49;25.10;99.90
3638;DHT22;1835;50.068;8.154;2022-08-14T06:19:19;25.70;99.90
3638;DHT22;1835;50.068;8.154;2022-08-14T06:21:50;26.40;98.70
3638;DHT22;1835;50.068;8.154;2022-08-14T06:24:25;26.90;97.40
3638;DHT22;1835;50.068;8.154;2022-08-14T06:27:00;27.00;97.30
3638;DHT22;1835;50.068;8.154;2022-08-14T06:29:31;27.40;95.80
3638;DHT22;1835;50.068;8.154;2022-08-14T06:32:01;27.70;94.90
3638;DHT22;1835;50.068;8.154;2022-08-14T06:34:50;27.60;95.20
3638;DHT22;1835;50.068;8.154;2022-08-14T06:37:41;27.70;94.50
3638;DHT22;1835;50.068;8.154;2022-08-14T06:40:11;27.70;93.60
3638;DHT22;1835;50.068;8.154;2022-08-14T06:42:54;28.00;94.00
3638;DHT22;1835;50.068;8.154;2022-08-14T06:45:29;28.30;93.30
3638;DHT22;1835;50.068;8.154;2022-08-14T06:47:57;28.70;92.50
3638;DHT22;1835;50.068;8.154;2022-08-14T06:50:28;28.60;91.90
3638;DHT22;1835;50.068;8.154;2022-08-14T06:53:00;28.80;92.10
3638;DHT22;1835;50.068;8.154;2022-08-14T06:55:29;29.30;91.30
3638;DHT22;1835;50.068;8.154;2022-08-14T06:57:57;29.90;90.80
3638;DHT22;1835;50.068;8.154;2022-08-14T07:00:28;30.30;88.50
3638;DHT22;1835;50.068;8.154;2022-08-14T07:02:58;30.90;86.40
3638;DHT22;1835;50.068;8.154;2022-08-14T07:05:47;31.10;85.30
3638;DHT22;1835;50.068;8.154;2022-08-14T07:08:27;31.20;85.40
3638;DHT22;1835;50.068;8.154;2022-08-14T07:10:59;31.60;80.10
3638;DHT22;1835;50.068;8.154;2022-08-14T07:13:30;31.60;80.30
3638;DHT22;1835;50.068;8.154;2022-08-14T07:15:59;31.50;80.40
3638;DHT22;1835;50.068;8.154;2022-08-14T07:18:33;31.60;79.30
3638;DHT22;1835;50.068;8.154;2022-08-14T07:21:07;32.20;78.60
3638;DHT22;1835;50.068;8.154;2022-08-14T07:23:38;32.40;76.30
3638;DHT22;1835;50.068;8.154;2022-08-14T07:26:10;32.20;72.90
3638;DHT22;1835;50.068;8.154;2022-08-14T07:28:39;32.50;73.30
3638;DHT22;1835;50.068;8.154;2022-08-14T07:31:11;32.80;72.90
3638;DHT22;1835;50.068;8.154;2022-08-14T07:33:43;32.40;72.70
3638;DHT22;1835;50.068;8.154;2022-08-14T07:36:19;32.50;74.10
3638;DHT22;1835;50.068;8.154;2022-08-14T07:38:57;32.60;71.30
3638;DHT22;1835;50.068;8.154;2022-08-14T07:41:26;33.10;71.30
3638;DHT22;1835;50.068;8.154;2022-08-14T07:44:00;32.90;70.80
3638;DHT22;1835;50.068;8.154;2022-08-14T07:46:49;32.60;68.50
3638;DHT22;1835;50.068;8.154;2022-08-14T07:49:17;32.50;70.50
3638;DHT22;1835;50.068;8.154;2022-08-14T07:51:49;32.70;70.40
3638;DHT22;1835;50.068;8.154;2022-08-14T07:54:20;33.10;69.80
3638;DHT22;1835;50.068;8.154;2022-08-14T07:56:56;33.30;67.30
3638;DHT22;1835;50.068;8.154;2022-08-14T07:59:26;33.10;66.10
3638;DHT22;1835;50.068;8.154;2022-08-14T08:02:11;33.40;65.90
3638;DHT22;1835;50.068;8.154;2022-08-14T08:04:47;33.10;65.80
3638;DHT22;1835;50.068;8.154;2022-08-14T08:07:22;33.20;66.00
3638;DHT22;1835;50.068;8.154;2022-08-14T08:09:59;33.30;67.50
3638;DHT22;1835;50.068;8.154;2022-08-14T08:13:14;34.00;64.20
3638;DHT22;1835;50.068;8.154;2022-08-14T08:15:51;34.60;62.70
3638;DHT22;1835;50.068;8.154;2022-08-14T08:18:20;34.40;61.90
3638;DHT22;1835;50.068;8.154;2022-08-14T08:20:55;34.50;60.20
3638;DHT22;1835;50.068;8.154;2022-08-14T08:23:27;35.10;61.40
3638;DHT22;1835;50.068;8.154;2022-08-14T08:26:07;35.50;58.20
3638;DHT22;1835;50.068;8.154;2022-08-14T08:28:36;35.00;58.10
3638;DHT22;1835;50.068;8.154;2022-08-14T08:31:10;34.60;58.30
3638;DHT22;1835;50.068;8.154;2022-08-14T08:33:40;34.50;60.00
3638;DHT22;1835;50.068;8.154;2022-08-14T08:36:15;34.50;58.20
3638;DHT22;1835;50.068;8.154;2022-08-14T08:38:47;34.00;59.20
3638;DHT22;1835;50.068;8.154;2022-08-14T08:41:42;34.80;60.10
3638;DHT22;1835;50.068;8.154;2022-08-14T08:44:17;34.40;58.60
3638;DHT22;1835;50.068;8.154;2022-08-14T08:46:59;35.00;57.40
3638;DHT22;1835;50.068;8.154;2022-08-14T08:49:40;33.90;58.00
3638;DHT22;1835;50.068;8.154;2022-08-14T08:52:26;34.30;57.50
3638;DHT22;1835;50.068;8.154;2022-08-14T08:54:58;34.50;57.80
3638;DHT22;1835;50.068;8.154;2022-08-14T08:57:35;34.50;57.90
3638;DHT22;1835;50.068;8.154;2022-08-14T09:00:16;35.10;59.00
3638;DHT22;1835;50.068;8.154;2022-08-14T09:02:53;36.00;56.20
3638;DHT22;1835;50.068;8.154;2022-08-14T09:05:25;36.30;54.30
3638;DHT22;1835;50.068;8.154;2022-08-14T09:08:15;36.80;53.80
3638;DHT22;1835;50.068;8.154;2022-08-14T09:11:00;36.80;53.80
3638;DHT22;1835;50.068;8.154;2022-08-14T09:13:51;35.80;52.80
3638;DHT22;1835;50.068;8.154;2022-08-14T09:16:22;36.20;53.70
3638;DHT22;1835;50.068;8.154;2022-08-14T09:18:53;36.20;53.70
3638;DHT22;1835;50.068;8.154;2022-08-14T09:21:23;36.10;51.90
3638;DHT22;1835;50.068;8.154;2022-08-14T09:23:58;36.70;52.50
3638;DHT22;1835;50.068;8.154;2022-08-14T09:26:46;36.60;52.40
3638;DHT22;1835;50.068;8.154;2022-08-14T09:29:18;37.00;51.60
3638;DHT22;1835;50.068;8.154;2022-08-14T09:31:52;37.70;51.60
3638;DHT22;1835;50.068;8.154;2022-08-14T09:34:42;38.30;50.20
3638;DHT22;1835;50.068;8.154;2022-08-14T09:37:33;38.60;48.80
3638;DHT22;1835;50.068;8.154;2022-08-14T09:40:15;38.20;48.50
3638;DHT22;1835;50.068;8.154;2022-08-14T09:43:09;38.10;49.30
3638;DHT22;1835;50.068;8.154;2022-08-14T09:45:50;37.70;48.30
3638;DHT22;1835;50.068;8.154;2022-08-14T09:48:21;37.90;49.40
3638;DHT22;1835;50.068;8.154;2022-08-14T09:50:57;38.30;49.60
3638;DHT22;1835;50.068;8.154;2022-08-14T09:53:38;38.10;48.20
3638;DHT22;1835;50.068;8.154;2022-08-14T09:56:41;38.40;48.10
3638;DHT22;1835;50.068;8.154;2022-08-14T09:59:22;38.70;47.00
3638;DHT22;1835;50.068;8.154;2022-08-14T10:01:55;39.50;45.10
3638;DHT22;1835;50.068;8.154;2022-08-14T10:04:26;39.70;45.00
3638;DHT22;1835;50.068;8.154;2022-08-14T10:07:03;39.20;43.70
3638;DHT22;1835;50.068;8.154;2022-08-14T10:09:46;39.60;44.30
3638;DHT22;1835;50.068;8.154;2022-08-14T10:12:44;39.10;43.80
3638;DHT22;1835;50.068;8.154;2022-08-14T10:15:22;38.80;44.30
3638;DHT22;1835;50.068;8.154;2022-08-14T10:18:10;38.60;44.90
3638;DHT22;1835;50.068;8.154;2022-08-14T10:20:52;38.00;44.00
3638;DHT22;1835;50.068;8.154;2022-08-14T10:23:26;37.60;43.90
3638;DHT22;1835;50.068;8.154;2022-08-14T10:26:04;37.50;43.30
3638;DHT22;1835;50.068;8.154;2022-08-14T10:28:38;37.00;44.40
3638;DHT22;1835;50.068;8.154;2022-08-14T10:31:29;37.60;44.20
3638;DHT22;1835;50.068;8.154;2022-08-14T10:34:17;37.70;46.20
3638;DHT22;1835;50.068;8.154;2022-08-14T10:37:02;37.40;46.30
3638;DHT22;1835;50.068;8.154;2022-08-14T10:39:41;37.60;47.40
3638;DHT22;1835;50.068;8.154;2022-08-14T10:42:35;37.20;45.80
3638;DHT22;1835;50.068;8.154;2022-08-14T10:45:16;37.00;45.90
3638;DHT22;1835;50.068;8.154;2022-08-14T10:47:47;36.70;45.30
3638;DHT22;1835;50.068;8.154;2022-08-14T10:50:41;36.40;46.60
3638;DHT22;1835;50.068;8.154;2022-08-14T10:53:28;36.20;45.80
3638;DHT22;1835;50.068;8.154;2022-08-14T10:55:59;36.10;46.70
3638;DHT22;1835;50.068;8.154;2022-08-14T10:58:31;35.80;45.90
3638;DHT22;1835;50.068;8.154;2022-08-14T11:01:01;36.30;46.20
3638;DHT22;1835;50.068;8.154;2022-08-14T11:03:39;36.30;45.90
3638;DHT22;1835;50.068;8.154;2022-08-14T11:06:24;36.10;45.50
3638;DHT22;1835;50.068;8.154;2022-08-14T11:08:53;35.60;45.80
3638;DHT22;1835;50.068;8.154;2022-08-14T11:11:23;35.20;46.00
3638;DHT22;1835;50.068;8.154;2022-08-14T11:14:03;34.50;47.70
3638;DHT22;1835;50.068;8.154;2022-08-14T11:16:35;34.10;50.60
3638;DHT22;1835;50.068;8.154;2022-08-14T11:19:07;33.50;48.20
3638;DHT22;1835;50.068;8.154;2022-08-14T11:21:38;33.70;50.70
3638;DHT22;1835;50.068;8.154;2022-08-14T11:24:13;33.60;48.40
3638;DHT22;1835;50.068;8.154;2022-08-14T11:27:03;33.30;48.40
3638;DHT22;1835;50.068;8.154;2022-08-14T11:29:32;33.20;49.40
3638;DHT22;1835;50.068;8.154;2022-08-14T11:32:02;33.20;49.20
3638;DHT22;1835;50.068;8.154;2022-08-14T11:34:35;33.20;49.30
3638;DHT22;1835;50.068;8.154;2022-08-14T11:37:11;32.90;48.90
3638;DHT22;1835;50.068;8.154;2022-08-14T11:39:54;32.60;51.50
3638;DHT22;1835;50.068;8.154;2022-08-14T11:42:26;32.60;49.40
3638;DHT22;1835;50.068;8.154;2022-08-14T11:45:16;32.40;49.40
3638;DHT22;1835;50.068;8.154;2022-08-14T11:47:50;32.10;50.40
3638;DHT22;1835;50.068;8.154;2022-08-14T11:50:38;31.80;50.30
3638;DHT22;1835;50.068;8.154;2022-08-14T11:53:20;31.50;51.00
3638;DHT22;1835;50.068;8.154;2022-08-14T11:55:58;31.40;51.90
3638;DHT22;1835;50.068;8.154;2022-08-14T11:58:34;31.40;50.90
3638;DHT22;1835;50.068;8.154;2022-08-14T12:01:06;31.50;49.90
3638;DHT22;1835;50.068;8.154;2022-08-14T12:03:37;31.30;47.50
3638;DHT22;1835;50.068;8.154;2022-08-14T12:06:22;31.40;48.60
3638;DHT22;1835;50.068;8.154;2022-08-14T12:09:06;31.20;48.50
3638;DHT22;1835;50.068;8.154;2022-08-14T12:11:42;31.30;48.90
3638;DHT22;1835;50.068;8.154;2022-08-14T12:14:14;31.20;49.00
3638;DHT22;1835;50.068;8.154;2022-08-14T12:17:02;31.20;49.60
3638;DHT22;1835;50.068;8.154;2022-08-14T12:19:48;31.20;48.40
3638;DHT22;1835;50.068;8.154;2022-08-14T12:22:33;31.00;48.90
3638;DHT22;1835;50.068;8.154;2022-08-14T12:25:07;31.00;49.20
3638;DHT22;1835;50.068;8.154;2022-08-14T12:27:39;31.10;49.10
3638;DHT22;1835;50.068;8.154;2022-08-14T12:30:28;31.10;48.70
3638;DHT22;1835;50.068;8.154;2022-08-14T12:33:18;31.10;51.20
3638;DHT22;1835;50.068;8.154;2022-08-14T12:35:59;31.00;51.60
3638;DHT22;1835;50.068;8.154;2022-08-14T12:38:34;31.10;50.20
3638;DHT22;1835;50.068;8.154;2022-08-14T12:41:09;31.00;50.90
3638;DHT22;1835;50.068;8.154;2022-08-14T12:43:51;31.10;50.40
3638;DHT22;1835;50.068;8.154;2022-08-14T12:46:27;31.20;49.60
3638;DHT22;1835;50.068;8.154;2022-08-14T12:49:07;31.30;48.50
3638;DHT22;1835;50.068;8.154;2022-08-14T12:51:37;31.30;48.70
3638;DHT22;1835;50.068;8.154;2022-08-14T12:54:12;31.20;48.30
3638;DHT22;1835;50.068;8.154;2022-08-14T12:57:04;31.20;47.80
3638;DHT22;1835;50.068;8.154;2022-08-14T12:59:34;31.10;50.10
3638;DHT22;1835;50.068;8.154;2022-08-14T13:02:20;31.20;49.70
3638;DHT22;1835;50.068;8.154;2022-08-14T13:04:53;31.30;47.80
3638;DHT22;1835;50.068;8.154;2022-08-14T13:07:26;31.40;48.40
3638;DHT22;1835;50.068;8.154;2022-08-14T13:09:59;31.30;47.70
3638;DHT22;1835;50.068;8.154;2022-08-14T13:12:53;31.30;47.30
3638;DHT22;1835;50.068;8.154;2022-08-14T13:15:42;31.40;49.10
3638;DHT22;1835;50.068;8.154;2022-08-14T13:18:13;31.60;47.80
3638;DHT22;1835;50.068;8.154;2022-08-14T13:20:43;31.60;47.60
3638;DHT22;1835;50.068;8.154;2022-08-14T13:23:18;31.40;45.50
3638;DHT22;1835;50.068;8.154;2022-08-14T13:25:57;31.30;45.80
3638;DHT22;1835;50.068;8.154;2022-08-14T13:28:27;31.40;46.50
3638;DHT22;1835;50.068;8.154;2022-08-14T13:31:01;31.40;47.00
3638;DHT22;1835;50.068;8.154;2022-08-14T13:33:38;31.40;46.80
3638;DHT22;1835;50.068;8.154;2022-08-14T13:36:08;31.50;46.70
3638;DHT22;1835;50.068;8.154;2022-08-14T13:38:50;31.60;46.80
3638;DHT22;1835;50.068;8.154;2022-08-14T13:41:20;31.50;46.00
3638;DHT22;1835;50.068;8.154;2022-08-14T13:43:59;31.70;47.00
3638;DHT22;1835;50.068;8.154;2022-08-14T13:46:27;31.70;45.90
3638;DHT22;1835;50.068;8.154;2022-08-14T13:48:55;31.80;45.50
3638;DHT22;1835;50.068;8.154;2022-08-14T13:51:29;31.80;46.00
3638;DHT22;1835;50.068;8.154;2022-08-14T13:54:00;31.80;45.50
3638;DHT22;1835;50.068;8.154;2022-08-14T13:56:38;31.70;45.80
3638;DHT22;1835;50.068;8.154;2022-08-14T13:59:09;31.60;46.20
3638;DHT22;1835;50.068;8.154;2022-08-14T14:01:47;31.60;45.60
3638;DHT22;1835;50.068;8.154;2022-08-14T14:04:18;31.70;46.40
3638;DHT22;1835;50.068;8.154;2022-08-14T14:06:49;31.70;45.40
3638;DHT22;1835;50.068;8.154;2022-08-14T14:09:23;31.70;45.40
3638;DHT22;1835;50.068;8.154;2022-08-14T14:12:15;31.70;45.60
3638;DHT22;1835;50.068;8.154;2022-08-14T14:15:08;31.70;45.40
3638;DHT22;1835;50.068;8.154;2022-08-14T14:17:38;31.70;45.40
3638;DHT22;1835;50.068;8.154;2022-08-14T14:20:11;31.80;45.40
3638;DHT22;1835;50.068;8.154;2022-08-14T14:23:00;31.70;45.30
3638;DHT22;1835;50.068;8.154;2022-08-14T14:25:40;31.60;45.40
3638;DHT22;1835;50.068;8.154;2022-08-14T14:28:22;31.50;45.10
3638;DHT22;1835;50.068;8.154;2022-08-14T14:31:01;31.50;45.40
3638;DHT22;1835;50.068;8.154;2022-08-14T14:33:33;31.50;45.20
3638;DHT22;1835;50.068;8.154;2022-08-14T14:36:28;31.40;45.00
3638;DHT22;1835;50.068;8.154;2022-08-14T14:39:00;31.50;45.20
3638;DHT22;1835;50.068;8.154;2022-08-14T14:41:33;31.50;44.90
3638;DHT22;1835;50.068;8.154;2022-08-14T14:44:11;31.50;45.30
3638;DHT22;1835;50.068;8.154;2022-08-14T14:46:44;31.50;46.00
3638;DHT22;1835;50.068;8.154;2022-08-14T14:49:17;31.60;46.10
3638;DHT22;1835;50.068;8.154;2022-08-14T14:51:47;31.50;44.70
3638;DHT22;1835;50.068;8.154;2022-08-14T14:54:20;31.60;45.70
3638;DHT22;1835;50.068;8.154;2022-08-14T14:56:58;31.70;46.50
3638;DHT22;1835;50.068;8.154;2022-08-14T14:59:28;31.80;45.70
3638;DHT22;1835;50.068;8.154;2022-08-14T15:02:04;31.90;45.70
3638;DHT22;1835;50.068;8.154;2022-08-14T15:04:36;32.10;47.60
3638;DHT22;1835;50.068;8.154;2022-08-14T15:07:10;32.10;45.00
3638;DHT22;1835;50.068;8.154;2022-08-14T15:09:42;32.10;45.70
3638;DHT22;1835;50.068;8.154;2022-08-14T15:12:14;32.10;45.00
3638;DHT22;1835;50.068;8.154;2022-08-14T15:15:03;32.10;44.60
3638;DHT22;1835;50.068;8.154;2022-08-14T15:17:36;32.00;45.00
3638;DHT22;1835;50.068;8.154;2022-08-14T15:20:10;32.00;44.40
3638;DHT22;1835;50.068;8.154;2022-08-14T15:22:46;31.90;44.60
3638;DHT22;1835;50.068;8.154;2022-08-14T15:25:17;31.90;47.10
3638;DHT22;1835;50.068;8.154;2022-08-14T15:27:47;31.90;44.70
3638;DHT22;1835;50.068;8.154;2022-08-14T15:30:21;32.00;45.80
3638;DHT22;1835;50.068;8.154;2022-08-14T15:32:59;32.10;45.10
3638;DHT22;1835;50.068;8.154;2022-08-14T15:35:30;32.20;46.20
3638;DHT22;1835;50.068;8.154;2022-08-14T15:38:00;32.30;45.40
3638;DHT22;1835;50.068;8.154;2022-08-14T15:40:36;32.30;44.80
3638;DHT22;1835;50.068;8.154;2022-08-14T15:43:08;32.30;46.40
3638;DHT22;1835;50.068;8.154;2022-08-14T15:45:39;32.20;44.90
3638;DHT22;1835;50.068;8.154;2022-08-14T15:48:10;32.20;44.40
3638;DHT22;1835;50.068;8.154;2022-08-14T15:50:49;32.10;45.00
3638;DHT22;1835;50.068;8.154;2022-08-14T15:53:22;32.20;45.50
3638;DHT22;1835;50.068;8.154;2022-08-14T15:55:57;32.20;44.60
3638;DHT22;1835;50.068;8.154;2022-08-14T15:58:26;32.10;45.20
3638;DHT22;1835;50.068;8.154;2022-08-14T16:00:54;32.10;45.40
3638;DHT22;1835;50.068;8.154;2022-08-14T16:03:58;32.00;44.00
3638;DHT22;1835;50.068;8.154;2022-08-14T16:06:27;31.80;44.80
3638;DHT22;1835;50.068;8.154;2022-08-14T16:08:57;31.80;45.90
3638;DHT22;1835;50.068;8.154;2022-08-14T16:11:36;31.90;45.10
3638;DHT22;1835;50.068;8.154;2022-08-14T16:14:19;32.00;45.90
3638;DHT22;1835;50.068;8.154;2022-08-14T16:16:49;32.10;44.60
3638;DHT22;1835;50.068;8.154;2022-08-14T16:19:28;32.10;44.90
3638;DHT22;1835;50.068;8.154;2022-08-14T16:22:09;32.10;45.70
3638;DHT22;1835;50.068;8.154;2022-08-14T16:25:00;32.10;45.80
3638;DHT22;1835;50.068;8.154;2022-08-14T16:27:31;32.00;45.50
3638;DHT22;1835;50.068;8.154;2022-08-14T16:30:10;31.80;45.50
3638;DHT22;1835;50.068;8.154;2022-08-14T16:32:54;31.80;46.60
3638;DHT22;1835;50.068;8.154;2022-08-14T16:35:27;31.80;48.30
3638;DHT22;1835;50.068;8.154;2022-08-14T16:38:19;31.90;48.80
3638;DHT22;1835;50.068;8.154;2022-08-14T16:41:09;31.90;49.70
3638;DHT22;1835;50.068;8.154;2022-08-14T16:43:51;31.80;49.80
3638;DHT22;1835;50.068;8.154;2022-08-14T16:46:25;31.70;50.80
3638;DHT22;1835;50.068;8.154;2022-08-14T16:48:58;31.70;50.80
3638;DHT22;1835;50.068;8.154;2022-08-14T16:51:30;31.50;51.70
3638;DHT22;1835;50.068;8.154;2022-08-14T16:54:03;31.60;52.70
3638;DHT22;1835;50.068;8.154;2022-08-14T16:56:52;31.50;52.40
3638;DHT22;1835;50.068;8.154;2022-08-14T16:59:23;31.40;53.00
3638;DHT22;1835;50.068;8.154;2022-08-14T17:02:12;31.30;53.60
3638;DHT22;1835;50.068;8.154;2022-08-14T17:04:45;31.20;53.60
3638;DHT22;1835;50.068;8.154;2022-08-14T17:07:16;31.20;53.50